sensor_id;sensor_type;location;lat;lon;timestamp;P1;durP1;ratioP1;P2;durP2;ratioP2
4468;SDS011;2247;42.666;23.292;2022-12-07T00:01:30;36.67;;;20.47;;
4468;SDS011;2247;42.666;23.292;2022-12-07T00:03:59;41.40;;;22.80;;
4468;SDS011;2247;42.666;23.292;2022-12-07T00:06:30;50.83;;;24.20;;
4468;SDS011;2247;42.666;23.292;2022-12-07T00:08:57;43.10;;;23.33;;
4468;SDS011;2247;42.666;23.292;2022-12-07T00:11:26;47.87;;;24.13;;
4468;SDS011;2247;42.666;23.292;2022-12-07T00:13:56;45.70;;;23.70;;
4468;SDS011;2247;42.666;23.292;2022-12-07T00:16:26;60.33;;;25.70;;
4468;SDS011;2247;42.666;23.292;2022-12-07T00:18:56;49.03;;;26.60;;
4468;SDS011;2247;42.666;23.292;2022-12-07T00:21:25;47.97;;;23.80;;
4468;SDS011;2247;42.666;23.292;2022-12-07T00:23:54;44.33;;;24.37;;
4468;SDS011;2247;42.666;23.292;2022-12-07T00:26:23;45.17;;;23.97;;
4468;SDS011;2247;42.666;23.292;2022-12-07T00:28:52;43.93;;;23.37;;
4468;SDS011;2247;42.666;23.292;2022-12-07T00:31:21;46.07;;;23.80;;
4468;SDS011;2247;42.666;23.292;2022-12-07T00:33:52;44.47;;;24.67;;
4468;SDS011;2247;42.666;23.292;2022-12-07T00:36:20;47.43;;;24.90;;
4468;SDS011;2247;42.666;23.292;2022-12-07T00:38:49;45.23;;;23.90;;
4468;SDS011;2247;42.666;23.292;2022-12-07T00:41:17;54.03;;;22.73;;
4468;SDS011;2247;42.666;23.292;2022-12-07T00:43:45;48.90;;;24.10;;
4468;SDS011;2247;42.666;23.292;2022-12-07T00:46:13;41.00;;;22.80;;
4468;SDS011;2247;42.666;23.292;2022-12-07T00:48:42;40.70;;;22.80;;
4468;SDS011;2247;42.666;23.292;2022-12-07T00:51:11;55.93;;;23.37;;
4468;SDS011;2247;42.666;23.292;2022-12-07T00:53:40;49.97;;;24.50;;
4468;SDS011;2247;42.666;23.292;2022-12-07T00:56:10;45.83;;;23.70;;
4468;SDS011;2247;42.666;23.292;2022-12-07T00:58:40;47.67;;;23.93;;
4468;SDS011;2247;42.666;23.292;2022-12-07T01:01:09;46.10;;;23.33;;
4468;SDS011;2247;42.666;23.292;2022-12-07T01:03:38;44.10;;;23.10;;
4468;SDS011;2247;42.666;23.292;2022-12-07T01:06:05;38.47;;;21.30;;
4468;SDS011;2247;42.666;23.292;2022-12-07T01:08:35;44.83;;;22.23;;
4468;SDS011;2247;42.666;23.292;2022-12-07T01:11:04;41.87;;;22.53;;
4468;SDS011;2247;42.666;23.292;2022-12-07T01:13:34;53.07;;;22.20;;
4468;SDS011;2247;42.666;23.292;2022-12-07T01:16:03;42.97;;;22.37;;
4468;SDS011;2247;42.666;23.292;2022-12-07T01:18:31;43.33;;;22.33;;
4468;SDS011;2247;42.666;23.292;2022-12-07T01:21:00;41.93;;;20.80;;
4468;SDS011;2247;42.666;23.292;2022-12-07T01:23:28;40.93;;;21.67;;
4468;SDS011;2247;42.666;23.292;2022-12-07T01:25:58;39.77;;;21.17;;
4468;SDS011;2247;42.666;23.292;2022-12-07T01:28:27;44.00;;;22.70;;
4468;SDS011;2247;42.666;23.292;2022-12-07T01:30:56;40.90;;;21.23;;
4468;SDS011;2247;42.666;23.292;2022-12-07T01:33:29;41.93;;;21.47;;
4468;SDS011;2247;42.666;23.292;2022-12-07T01:36:01;38.47;;;21.50;;
4468;SDS011;2247;42.666;23.292;2022-12-07T01:38:29;39.80;;;20.20;;
4468;SDS011;2247;42.666;23.292;2022-12-07T01:40:58;41.43;;;22.33;;
4468;SDS011;2247;42.666;23.292;2022-12-07T01:43:27;38.40;;;20.90;;
4468;SDS011;2247;42.666;23.292;2022-12-07T01:45:56;40.97;;;21.57;;
4468;SDS011;2247;42.666;23.292;2022-12-07T01:48:25;43.70;;;21.50;;
4468;SDS011;2247;42.666;23.292;2022-12-07T01:50:55;43.13;;;22.10;;
4468;SDS011;2247;42.666;23.292;2022-12-07T01:53:28;42.80;;;21.30;;
4468;SDS011;2247;42.666;23.292;2022-12-07T01:55:58;42.00;;;21.23;;
4468;SDS011;2247;42.666;23.292;2022-12-07T01:58:25;45.10;;;22.50;;
4468;SDS011;2247;42.666;23.292;2022-12-07T02:00:52;40.27;;;20.20;;
4468;SDS011;2247;42.666;23.292;2022-12-07T02:03:22;37.43;;;22.00;;
4468;SDS011;2247;42.666;23.292;2022-12-07T02:05:54;40.10;;;20.53;;
4468;SDS011;2247;42.666;23.292;2022-12-07T02:08:24;38.33;;;21.37;;
4468;SDS011;2247;42.666;23.292;2022-12-07T02:10:52;41.80;;;20.57;;
4468;SDS011;2247;42.666;23.292;2022-12-07T02:13:21;41.60;;;21.37;;
4468;SDS011;2247;42.666;23.292;2022-12-07T02:16:03;35.53;;;19.30;;
4468;SDS011;2247;42.666;23.292;2022-12-07T02:18:46;36.40;;;18.60;;
4468;SDS011;2247;42.666;23.292;2022-12-07T02:21:24;33.07;;;19.40;;
4468;SDS011;2247;42.666;23.292;2022-12-07T02:24:06;34.70;;;19.10;;
4468;SDS011;2247;42.666;23.292;2022-12-07T02:29:39;39.50;;;19.40;;
4468;SDS011;2247;42.666;23.292;2022-12-07T02:32:14;36.10;;;19.80;;
4468;SDS011;2247;42.666;23.292;2022-12-07T02:34:50;38.37;;;20.00;;
4468;SDS011;2247;42.666;23.292;2022-12-07T02:37:38;41.13;;;21.60;;
4468;SDS011;2247;42.666;23.292;2022-12-07T02:40:14;40.80;;;21.57;;
4468;SDS011;2247;42.666;23.292;2022-12-07T02:42:47;39.50;;;20.50;;
4468;SDS011;2247;42.666;23.292;2022-12-07T02:45:22;43.00;;;22.57;;
4468;SDS011;2247;42.666;23.292;2022-12-07T02:47:52;38.70;;;21.70;;
4468;SDS011;2247;42.666;23.292;2022-12-07T02:50:24;40.37;;;21.33;;
4468;SDS011;2247;42.666;23.292;2022-12-07T02:52:52;42.30;;;22.40;;
4468;SDS011;2247;42.666;23.292;2022-12-07T02:55:19;41.10;;;22.30;;
4468;SDS011;2247;42.666;23.292;2022-12-07T02:58:01;41.73;;;23.13;;
4468;SDS011;2247;42.666;23.292;2022-12-07T03:00:41;42.80;;;23.30;;
4468;SDS011;2247;42.666;23.292;2022-12-07T03:03:16;45.33;;;22.53;;
4468;SDS011;2247;42.666;23.292;2022-12-07T03:05:46;45.27;;;23.37;;
4468;SDS011;2247;42.666;23.292;2022-12-07T03:08:24;43.87;;;23.30;;
4468;SDS011;2247;42.666;23.292;2022-12-07T03:11:00;49.07;;;22.60;;
4468;SDS011;2247;42.666;23.292;2022-12-07T03:13:33;51.83;;;23.53;;
4468;SDS011;2247;42.666;23.292;2022-12-07T03:16:08;47.27;;;25.13;;
4468;SDS011;2247;42.666;23.292;2022-12-07T03:18:42;44.13;;;22.43;;
4468;SDS011;2247;42.666;23.292;2022-12-07T03:21:15;43.07;;;22.47;;
4468;SDS011;2247;42.666;23.292;2022-12-07T03:23:51;41.53;;;21.67;;
4468;SDS011;2247;42.666;23.292;2022-12-07T03:26:23;38.43;;;21.53;;
4468;SDS011;2247;42.666;23.292;2022-12-07T03:28:56;40.33;;;21.30;;
4468;SDS011;2247;42.666;23.292;2022-12-07T03:31:30;37.63;;;21.30;;
4468;SDS011;2247;42.666;23.292;2022-12-07T03:34:01;38.17;;;22.20;;
4468;SDS011;2247;42.666;23.292;2022-12-07T03:36:35;37.43;;;20.90;;
4468;SDS011;2247;42.666;23.292;2022-12-07T03:39:11;40.63;;;21.43;;
4468;SDS011;2247;42.666;23.292;2022-12-07T03:41:44;42.40;;;21.77;;
4468;SDS011;2247;42.666;23.292;2022-12-07T03:44:12;35.13;;;20.47;;
4468;SDS011;2247;42.666;23.292;2022-12-07T03:46:44;39.97;;;21.33;;
4468;SDS011;2247;42.666;23.292;2022-12-07T03:49:23;45.17;;;21.27;;
4468;SDS011;2247;42.666;23.292;2022-12-07T03:51:55;41.20;;;21.10;;
4468;SDS011;2247;42.666;23.292;2022-12-07T03:54:31;43.13;;;21.13;;
4468;SDS011;2247;42.666;23.292;2022-12-07T03:57:03;37.33;;;20.77;;
4468;SDS011;2247;42.666;23.292;2022-12-07T03:59:32;40.63;;;21.47;;
4468;SDS011;2247;42.666;23.292;2022-12-07T04:02:03;38.70;;;21.33;;
4468;SDS011;2247;42.666;23.292;2022-12-07T04:04:32;43.87;;;21.57;;
4468;SDS011;2247;42.666;23.292;2022-12-07T04:07:00;41.90;;;21.50;;
4468;SDS011;2247;42.666;23.292;2022-12-07T04:09:28;40.40;;;21.23;;
4468;SDS011;2247;42.666;23.292;2022-12-07T04:11:56;38.23;;;20.13;;
4468;SDS011;2247;42.666;23.292;2022-12-07T04:14:23;35.00;;;19.90;;
4468;SDS011;2247;42.666;23.292;2022-12-07T04:16:50;46.87;;;20.63;;
4468;SDS011;2247;42.666;23.292;2022-12-07T04:19:24;35.97;;;19.87;;
4468;SDS011;2247;42.666;23.292;2022-12-07T04:21:53;40.63;;;20.00;;
4468;SDS011;2247;42.666;23.292;2022-12-07T04:24:21;37.10;;;19.50;;
4468;SDS011;2247;42.666;23.292;2022-12-07T04:26:48;43.30;;;20.20;;
4468;SDS011;2247;42.666;23.292;2022-12-07T04:29:15;41.53;;;20.40;;
4468;SDS011;2247;42.666;23.292;2022-12-07T04:31:43;40.60;;;19.93;;
4468;SDS011;2247;42.666;23.292;2022-12-07T04:34:11;36.27;;;19.80;;
4468;SDS011;2247;42.666;23.292;2022-12-07T04:36:40;39.83;;;19.70;;
4468;SDS011;2247;42.666;23.292;2022-12-07T04:39:17;36.33;;;19.90;;
4468;SDS011;2247;42.666;23.292;2022-12-07T04:41:46;39.43;;;18.53;;
4468;SDS011;2247;42.666;23.292;2022-12-07T04:44:14;40.93;;;18.83;;
4468;SDS011;2247;42.666;23.292;2022-12-07T04:46:41;34.33;;;18.83;;
4468;SDS011;2247;42.666;23.292;2022-12-07T04:49:09;34.80;;;18.50;;
4468;SDS011;2247;42.666;23.292;2022-12-07T04:51:37;39.53;;;19.50;;
4468;SDS011;2247;42.666;23.292;2022-12-07T04:54:08;39.87;;;18.97;;
4468;SDS011;2247;42.666;23.292;2022-12-07T04:56:35;36.30;;;18.80;;
4468;SDS011;2247;42.666;23.292;2022-12-07T04:59:03;36.60;;;18.73;;
4468;SDS011;2247;42.666;23.292;2022-12-07T05:06:41;33.07;;;18.00;;
4468;SDS011;2247;42.666;23.292;2022-12-07T05:09:10;30.90;;;17.23;;
4468;SDS011;2247;42.666;23.292;2022-12-07T05:11:37;31.00;;;17.03;;
4468;SDS011;2247;42.666;23.292;2022-12-07T05:45:07;44.40;;;19.53;;
4468;SDS011;2247;42.666;23.292;2022-12-07T05:47:35;37.67;;;20.03;;
4468;SDS011;2247;42.666;23.292;2022-12-07T05:50:04;36.50;;;18.57;;
4468;SDS011;2247;42.666;23.292;2022-12-07T05:52:36;40.13;;;19.80;;
4468;SDS011;2247;42.666;23.292;2022-12-07T05:55:05;36.33;;;18.43;;
4468;SDS011;2247;42.666;23.292;2022-12-07T05:57:33;34.57;;;16.93;;
4468;SDS011;2247;42.666;23.292;2022-12-07T06:00:00;37.67;;;18.23;;
4468;SDS011;2247;42.666;23.292;2022-12-07T06:02:28;37.30;;;18.30;;
4468;SDS011;2247;42.666;23.292;2022-12-07T06:04:55;32.47;;;17.37;;
4468;SDS011;2247;42.666;23.292;2022-12-07T06:07:22;30.87;;;17.30;;
4468;SDS011;2247;42.666;23.292;2022-12-07T06:09:49;40.50;;;17.40;;
4468;SDS011;2247;42.666;23.292;2022-12-07T06:12:16;31.60;;;16.80;;
4468;SDS011;2247;42.666;23.292;2022-12-07T06:15:00;42.70;;;19.53;;
4468;SDS011;2247;42.666;23.292;2022-12-07T06:27:49;47.37;;;21.23;;
4468;SDS011;2247;42.666;23.292;2022-12-07T06:30:16;40.37;;;20.60;;
4468;SDS011;2247;42.666;23.292;2022-12-07T06:32:49;38.37;;;18.40;;
4468;SDS011;2247;42.666;23.292;2022-12-07T06:37:51;38.93;;;21.23;;
4468;SDS011;2247;42.666;23.292;2022-12-07T06:40:19;41.60;;;21.13;;
4468;SDS011;2247;42.666;23.292;2022-12-07T06:45:38;40.17;;;20.43;;
4468;SDS011;2247;42.666;23.292;2022-12-07T06:48:05;45.90;;;22.13;;
4468;SDS011;2247;42.666;23.292;2022-12-07T06:50:33;43.73;;;20.20;;
4468;SDS011;2247;42.666;23.292;2022-12-07T06:53:02;36.97;;;20.60;;
4468;SDS011;2247;42.666;23.292;2022-12-07T06:55:30;39.97;;;21.07;;
4468;SDS011;2247;42.666;23.292;2022-12-07T06:57:58;50.27;;;20.70;;
4468;SDS011;2247;42.666;23.292;2022-12-07T07:00:28;42.27;;;22.23;;
4468;SDS011;2247;42.666;23.292;2022-12-07T07:02:57;40.93;;;21.40;;
4468;SDS011;2247;42.666;23.292;2022-12-07T07:05:24;42.03;;;20.27;;
4468;SDS011;2247;42.666;23.292;2022-12-07T07:07:51;48.93;;;21.53;;
4468;SDS011;2247;42.666;23.292;2022-12-07T07:10:18;44.50;;;21.73;;
4468;SDS011;2247;42.666;23.292;2022-12-07T07:12:47;46.10;;;22.67;;
4468;SDS011;2247;42.666;23.292;2022-12-07T07:15:17;36.10;;;20.57;;
4468;SDS011;2247;42.666;23.292;2022-12-07T07:17:45;41.17;;;19.87;;
4468;SDS011;2247;42.666;23.292;2022-12-07T07:20:15;52.47;;;21.80;;
4468;SDS011;2247;42.666;23.292;2022-12-07T07:22:44;44.13;;;21.63;;
4468;SDS011;2247;42.666;23.292;2022-12-07T07:25:12;40.70;;;21.00;;
4468;SDS011;2247;42.666;23.292;2022-12-07T07:27:41;40.17;;;20.37;;
4468;SDS011;2247;42.666;23.292;2022-12-07T07:30:12;46.67;;;23.80;;
4468;SDS011;2247;42.666;23.292;2022-12-07T07:32:55;47.23;;;24.53;;
4468;SDS011;2247;42.666;23.292;2022-12-07T07:35:24;43.63;;;23.10;;
4468;SDS011;2247;42.666;23.292;2022-12-07T07:37:51;44.80;;;24.17;;
4468;SDS011;2247;42.666;23.292;2022-12-07T07:40:18;52.03;;;24.13;;
4468;SDS011;2247;42.666;23.292;2022-12-07T07:42:46;48.40;;;24.63;;
4468;SDS011;2247;42.666;23.292;2022-12-07T07:45:14;46.73;;;24.33;;
4468;SDS011;2247;42.666;23.292;2022-12-07T07:47:41;41.63;;;23.57;;
4468;SDS011;2247;42.666;23.292;2022-12-07T07:50:10;51.90;;;24.10;;
4468;SDS011;2247;42.666;23.292;2022-12-07T07:52:39;52.77;;;24.67;;
4468;SDS011;2247;42.666;23.292;2022-12-07T07:55:06;44.50;;;23.80;;
4468;SDS011;2247;42.666;23.292;2022-12-07T07:57:34;48.70;;;23.30;;
4468;SDS011;2247;42.666;23.292;2022-12-07T08:00:03;52.00;;;25.03;;
4468;SDS011;2247;42.666;23.292;2022-12-07T08:02:31;51.60;;;24.90;;
4468;SDS011;2247;42.666;23.292;2022-12-07T08:04:59;50.33;;;24.20;;
4468;SDS011;2247;42.666;23.292;2022-12-07T08:07:27;50.40;;;25.57;;
4468;SDS011;2247;42.666;23.292;2022-12-07T08:09:55;46.13;;;24.73;;
4468;SDS011;2247;42.666;23.292;2022-12-07T08:12:22;53.37;;;26.30;;
4468;SDS011;2247;42.666;23.292;2022-12-07T08:14:50;49.87;;;25.10;;
4468;SDS011;2247;42.666;23.292;2022-12-07T08:17:17;55.93;;;26.47;;
4468;SDS011;2247;42.666;23.292;2022-12-07T08:19:44;49.00;;;25.03;;
4468;SDS011;2247;42.666;23.292;2022-12-07T08:22:11;47.03;;;24.70;;
4468;SDS011;2247;42.666;23.292;2022-12-07T08:24:38;53.50;;;25.53;;
4468;SDS011;2247;42.666;23.292;2022-12-07T08:27:07;55.57;;;26.27;;
4468;SDS011;2247;42.666;23.292;2022-12-07T08:29:35;53.03;;;25.43;;
4468;SDS011;2247;42.666;23.292;2022-12-07T08:32:03;49.27;;;26.53;;
4468;SDS011;2247;42.666;23.292;2022-12-07T08:36:58;51.10;;;27.43;;
4468;SDS011;2247;42.666;23.292;2022-12-07T08:39:26;66.57;;;30.27;;
4468;SDS011;2247;42.666;23.292;2022-12-07T08:41:53;49.73;;;23.90;;
4468;SDS011;2247;42.666;23.292;2022-12-07T08:47:00;48.67;;;24.90;;
4468;SDS011;2247;42.666;23.292;2022-12-07T08:49:31;45.57;;;25.13;;
4468;SDS011;2247;42.666;23.292;2022-12-07T08:52:05;46.23;;;22.40;;
4468;SDS011;2247;42.666;23.292;2022-12-07T08:54:32;46.33;;;23.07;;
4468;SDS011;2247;42.666;23.292;2022-12-07T08:57:01;48.00;;;23.40;;
4468;SDS011;2247;42.666;23.292;2022-12-07T08:59:29;46.90;;;24.20;;
4468;SDS011;2247;42.666;23.292;2022-12-07T09:02:01;48.20;;;23.83;;
4468;SDS011;2247;42.666;23.292;2022-12-07T09:04:28;48.27;;;22.80;;
4468;SDS011;2247;42.666;23.292;2022-12-07T09:06:55;52.57;;;22.80;;
4468;SDS011;2247;42.666;23.292;2022-12-07T09:09:22;43.90;;;23.40;;
4468;SDS011;2247;42.666;23.292;2022-12-07T09:11:52;45.60;;;24.47;;
4468;SDS011;2247;42.666;23.292;2022-12-07T09:14:19;40.90;;;21.87;;
4468;SDS011;2247;42.666;23.292;2022-12-07T09:16:46;87.00;;;22.20;;
4468;SDS011;2247;42.666;23.292;2022-12-07T09:19:15;55.53;;;23.43;;
4468;SDS011;2247;42.666;23.292;2022-12-07T09:21:42;53.33;;;22.70;;
4468;SDS011;2247;42.666;23.292;2022-12-07T09:24:11;43.53;;;21.50;;
4468;SDS011;2247;42.666;23.292;2022-12-07T09:26:39;43.70;;;21.10;;
4468;SDS011;2247;42.666;23.292;2022-12-07T09:29:06;53.60;;;23.33;;
4468;SDS011;2247;42.666;23.292;2022-12-07T09:31:35;42.97;;;21.37;;
4468;SDS011;2247;42.666;23.292;2022-12-07T09:34:03;50.50;;;22.60;;
4468;SDS011;2247;42.666;23.292;2022-12-07T09:39:03;45.43;;;23.07;;
4468;SDS011;2247;42.666;23.292;2022-12-07T09:41:30;47.93;;;21.63;;
4468;SDS011;2247;42.666;23.292;2022-12-07T09:44:02;44.73;;;23.23;;
4468;SDS011;2247;42.666;23.292;2022-12-07T09:46:32;40.93;;;21.43;;
4468;SDS011;2247;42.666;23.292;2022-12-07T09:49:03;45.83;;;23.00;;
4468;SDS011;2247;42.666;23.292;2022-12-07T09:51:30;41.73;;;22.10;;
4468;SDS011;2247;42.666;23.292;2022-12-07T09:54:00;46.97;;;22.33;;
4468;SDS011;2247;42.666;23.292;2022-12-07T09:56:28;44.47;;;22.07;;
4468;SDS011;2247;42.666;23.292;2022-12-07T09:58:58;47.10;;;22.60;;
4468;SDS011;2247;42.666;23.292;2022-12-07T10:01:27;47.60;;;22.80;;
4468;SDS011;2247;42.666;23.292;2022-12-07T10:03:59;43.20;;;21.63;;
4468;SDS011;2247;42.666;23.292;2022-12-07T10:06:33;51.77;;;20.30;;
4468;SDS011;2247;42.666;23.292;2022-12-07T10:09:02;42.47;;;21.77;;
4468;SDS011;2247;42.666;23.292;2022-12-07T10:11:35;48.40;;;22.17;;
4468;SDS011;2247;42.666;23.292;2022-12-07T10:14:10;53.27;;;21.40;;
4468;SDS011;2247;42.666;23.292;2022-12-07T10:16:39;46.90;;;20.73;;
4468;SDS011;2247;42.666;23.292;2022-12-07T10:19:21;40.63;;;20.00;;
4468;SDS011;2247;42.666;23.292;2022-12-07T10:22:00;51.57;;;21.60;;
4468;SDS011;2247;42.666;23.292;2022-12-07T10:24:31;54.33;;;21.93;;
4468;SDS011;2247;42.666;23.292;2022-12-07T10:26:58;35.43;;;20.03;;
4468;SDS011;2247;42.666;23.292;2022-12-07T10:29:28;35.17;;;19.80;;
4468;SDS011;2247;42.666;23.292;2022-12-07T10:31:57;43.57;;;21.33;;
4468;SDS011;2247;42.666;23.292;2022-12-07T10:34:27;41.63;;;21.10;;
4468;SDS011;2247;42.666;23.292;2022-12-07T10:37:06;42.93;;;22.27;;
4468;SDS011;2247;42.666;23.292;2022-12-07T10:39:42;59.97;;;22.67;;
4468;SDS011;2247;42.666;23.292;2022-12-07T10:42:18;45.70;;;23.30;;
4468;SDS011;2247;42.666;23.292;2022-12-07T10:47:20;46.87;;;20.80;;
4468;SDS011;2247;42.666;23.292;2022-12-07T10:50:04;38.17;;;17.33;;
4468;SDS011;2247;42.666;23.292;2022-12-07T10:52:52;38.93;;;18.27;;
4468;SDS011;2247;42.666;23.292;2022-12-07T10:55:34;46.50;;;19.30;;
4468;SDS011;2247;42.666;23.292;2022-12-07T10:58:18;54.97;;;20.30;;
4468;SDS011;2247;42.666;23.292;2022-12-07T11:00:56;40.13;;;19.97;;
4468;SDS011;2247;42.666;23.292;2022-12-07T11:03:40;40.20;;;19.90;;
4468;SDS011;2247;42.666;23.292;2022-12-07T11:06:18;43.40;;;16.30;;
4468;SDS011;2247;42.666;23.292;2022-12-07T11:08:58;37.63;;;18.63;;
4468;SDS011;2247;42.666;23.292;2022-12-07T11:11:38;32.90;;;16.57;;
4468;SDS011;2247;42.666;23.292;2022-12-07T11:14:13;35.23;;;16.87;;
4468;SDS011;2247;42.666;23.292;2022-12-07T11:16:53;33.33;;;17.10;;
4468;SDS011;2247;42.666;23.292;2022-12-07T11:19:39;32.23;;;17.10;;
4468;SDS011;2247;42.666;23.292;2022-12-07T11:22:18;39.13;;;16.40;;
4468;SDS011;2247;42.666;23.292;2022-12-07T11:24:55;36.00;;;15.47;;
4468;SDS011;2247;42.666;23.292;2022-12-07T11:27:35;30.60;;;16.37;;
4468;SDS011;2247;42.666;23.292;2022-12-07T11:30:11;33.97;;;17.13;;
4468;SDS011;2247;42.666;23.292;2022-12-07T11:32:55;32.30;;;17.00;;
4468;SDS011;2247;42.666;23.292;2022-12-07T11:38:01;32.40;;;16.17;;
4468;SDS011;2247;42.666;23.292;2022-12-07T11:40:36;40.50;;;14.97;;
4468;SDS011;2247;42.666;23.292;2022-12-07T11:43:11;32.10;;;16.43;;
4468;SDS011;2247;42.666;23.292;2022-12-07T11:45:46;35.07;;;16.30;;
4468;SDS011;2247;42.666;23.292;2022-12-07T11:48:20;39.40;;;16.83;;
4468;SDS011;2247;42.666;23.292;2022-12-07T11:50:56;32.60;;;16.70;;
4468;SDS011;2247;42.666;23.292;2022-12-07T11:53:30;58.77;;;17.47;;
4468;SDS011;2247;42.666;23.292;2022-12-07T11:56:09;31.77;;;16.00;;
4468;SDS011;2247;42.666;23.292;2022-12-07T11:58:44;30.07;;;16.30;;
4468;SDS011;2247;42.666;23.292;2022-12-07T12:01:22;40.33;;;16.87;;
4468;SDS011;2247;42.666;23.292;2022-12-07T12:04:01;35.00;;;16.80;;
4468;SDS011;2247;42.666;23.292;2022-12-07T12:06:33;28.70;;;15.93;;
4468;SDS011;2247;42.666;23.292;2022-12-07T12:09:03;37.27;;;18.07;;
4468;SDS011;2247;42.666;23.292;2022-12-07T12:11:38;37.93;;;16.37;;
4468;SDS011;2247;42.666;23.292;2022-12-07T12:14:35;37.00;;;16.90;;
4468;SDS011;2247;42.666;23.292;2022-12-07T12:17:22;29.03;;;14.90;;
4468;SDS011;2247;42.666;23.292;2022-12-07T12:20:14;28.37;;;15.40;;
4468;SDS011;2247;42.666;23.292;2022-12-07T12:22:52;26.07;;;15.27;;
4468;SDS011;2247;42.666;23.292;2022-12-07T12:25:24;27.20;;;13.40;;
4468;SDS011;2247;42.666;23.292;2022-12-07T12:27:55;35.77;;;14.77;;
4468;SDS011;2247;42.666;23.292;2022-12-07T12:30:29;23.60;;;13.10;;
4468;SDS011;2247;42.666;23.292;2022-12-07T12:33:05;26.10;;;13.87;;
4468;SDS011;2247;42.666;23.292;2022-12-07T12:35:41;25.83;;;14.90;;
4468;SDS011;2247;42.666;23.292;2022-12-07T12:38:29;37.13;;;14.47;;
4468;SDS011;2247;42.666;23.292;2022-12-07T12:40:59;33.93;;;15.00;;
4468;SDS011;2247;42.666;23.292;2022-12-07T12:43:46;26.17;;;13.70;;
4468;SDS011;2247;42.666;23.292;2022-12-07T12:49:33;36.30;;;13.70;;
4468;SDS011;2247;42.666;23.292;2022-12-07T12:58:34;30.07;;;13.60;;
4468;SDS011;2247;42.666;23.292;2022-12-07T13:04:27;31.40;;;13.87;;
4468;SDS011;2247;42.666;23.292;2022-12-07T13:10:36;25.93;;;12.40;;
4468;SDS011;2247;42.666;23.292;2022-12-07T13:25:11;23.37;;;12.40;;
4468;SDS011;2247;42.666;23.292;2022-12-07T13:27:47;26.93;;;12.43;;
4468;SDS011;2247;42.666;23.292;2022-12-07T13:30:21;29.33;;;12.60;;
4468;SDS011;2247;42.666;23.292;2022-12-07T13:32:53;25.03;;;12.50;;
4468;SDS011;2247;42.666;23.292;2022-12-07T13:35:36;20.40;;;11.90;;
4468;SDS011;2247;42.666;23.292;2022-12-07T13:38:23;31.43;;;14.13;;
4468;SDS011;2247;42.666;23.292;2022-12-07T13:41:03;32.47;;;12.60;;
4468;SDS011;2247;42.666;23.292;2022-12-07T13:43:42;22.17;;;12.20;;
4468;SDS011;2247;42.666;23.292;2022-12-07T13:46:16;22.80;;;10.90;;
4468;SDS011;2247;42.666;23.292;2022-12-07T13:49:01;21.47;;;12.23;;
4468;SDS011;2247;42.666;23.292;2022-12-07T13:51:54;24.53;;;12.87;;
4468;SDS011;2247;42.666;23.292;2022-12-07T13:54:56;25.80;;;10.30;;
4468;SDS011;2247;42.666;23.292;2022-12-07T13:57:31;16.97;;;9.17;;
4468;SDS011;2247;42.666;23.292;2022-12-07T14:00:00;19.43;;;10.10;;
4468;SDS011;2247;42.666;23.292;2022-12-07T14:02:30;19.73;;;9.27;;
4468;SDS011;2247;42.666;23.292;2022-12-07T14:05:06;19.20;;;9.83;;
4468;SDS011;2247;42.666;23.292;2022-12-07T14:07:34;35.53;;;9.90;;
4468;SDS011;2247;42.666;23.292;2022-12-07T14:10:05;17.97;;;9.03;;
4468;SDS011;2247;42.666;23.292;2022-12-07T14:12:35;18.87;;;11.13;;
4468;SDS011;2247;42.666;23.292;2022-12-07T14:17:30;24.37;;;10.00;;
4468;SDS011;2247;42.666;23.292;2022-12-07T14:19:58;21.43;;;10.50;;
4468;SDS011;2247;42.666;23.292;2022-12-07T14:22:31;22.93;;;11.63;;
4468;SDS011;2247;42.666;23.292;2022-12-07T14:25:11;28.87;;;11.30;;
4468;SDS011;2247;42.666;23.292;2022-12-07T14:27:47;23.30;;;11.33;;
4468;SDS011;2247;42.666;23.292;2022-12-07T14:30:21;21.13;;;11.70;;
4468;SDS011;2247;42.666;23.292;2022-12-07T14:32:52;33.30;;;13.93;;
4468;SDS011;2247;42.666;23.292;2022-12-07T14:35:21;31.93;;;12.53;;
4468;SDS011;2247;42.666;23.292;2022-12-07T14:37:48;33.87;;;12.50;;
4468;SDS011;2247;42.666;23.292;2022-12-07T14:40:19;26.77;;;12.50;;
4468;SDS011;2247;42.666;23.292;2022-12-07T14:42:49;23.43;;;12.10;;
4468;SDS011;2247;42.666;23.292;2022-12-07T14:45:20;21.97;;;12.23;;
4468;SDS011;2247;42.666;23.292;2022-12-07T14:47:49;31.33;;;11.30;;
4468;SDS011;2247;42.666;23.292;2022-12-07T14:50:16;30.70;;;11.70;;
4468;SDS011;2247;42.666;23.292;2022-12-07T14:52:46;36.87;;;11.90;;
4468;SDS011;2247;42.666;23.292;2022-12-07T14:55:22;26.40;;;11.73;;
4468;SDS011;2247;42.666;23.292;2022-12-07T14:57:51;26.03;;;12.20;;
4468;SDS011;2247;42.666;23.292;2022-12-07T15:00:26;26.17;;;11.60;;
4468;SDS011;2247;42.666;23.292;2022-12-07T15:03:02;29.00;;;11.53;;
4468;SDS011;2247;42.666;23.292;2022-12-07T15:08:00;21.00;;;11.87;;
4468;SDS011;2247;42.666;23.292;2022-12-07T15:10:30;18.23;;;10.83;;
4468;SDS011;2247;42.666;23.292;2022-12-07T15:15:33;30.43;;;13.10;;
4468;SDS011;2247;42.666;23.292;2022-12-07T15:18:00;35.27;;;13.90;;
4468;SDS011;2247;42.666;23.292;2022-12-07T15:20:27;29.00;;;14.20;;
4468;SDS011;2247;42.666;23.292;2022-12-07T15:28:01;44.23;;;16.03;;
4468;SDS011;2247;42.666;23.292;2022-12-07T15:33:04;45.93;;;14.60;;
4468;SDS011;2247;42.666;23.292;2022-12-07T15:35:31;45.87;;;15.37;;
4468;SDS011;2247;42.666;23.292;2022-12-07T15:40:33;35.23;;;14.60;;
4468;SDS011;2247;42.666;23.292;2022-12-07T15:43:01;45.30;;;15.30;;
4468;SDS011;2247;42.666;23.292;2022-12-07T15:45:29;50.87;;;16.40;;
4468;SDS011;2247;42.666;23.292;2022-12-07T15:47:55;45.17;;;20.20;;
4468;SDS011;2247;42.666;23.292;2022-12-07T15:50:22;35.30;;;15.60;;
4468;SDS011;2247;42.666;23.292;2022-12-07T15:52:49;63.40;;;15.83;;
4468;SDS011;2247;42.666;23.292;2022-12-07T15:55:16;48.67;;;15.40;;
4468;SDS011;2247;42.666;23.292;2022-12-07T15:57:44;54.37;;;17.10;;
4468;SDS011;2247;42.666;23.292;2022-12-07T16:00:14;57.83;;;18.10;;
4468;SDS011;2247;42.666;23.292;2022-12-07T16:02:41;47.77;;;17.20;;
4468;SDS011;2247;42.666;23.292;2022-12-07T16:05:08;51.07;;;17.70;;
4468;SDS011;2247;42.666;23.292;2022-12-07T16:07:35;43.20;;;17.47;;
4468;SDS011;2247;42.666;23.292;2022-12-07T16:10:03;57.20;;;18.27;;
4468;SDS011;2247;42.666;23.292;2022-12-07T16:12:30;56.37;;;17.33;;
4468;SDS011;2247;42.666;23.292;2022-12-07T16:14:58;36.93;;;17.80;;
4468;SDS011;2247;42.666;23.292;2022-12-07T16:17:26;41.50;;;17.30;;
4468;SDS011;2247;42.666;23.292;2022-12-07T16:19:56;47.20;;;17.60;;
4468;SDS011;2247;42.666;23.292;2022-12-07T16:22:23;46.00;;;19.53;;
4468;SDS011;2247;42.666;23.292;2022-12-07T16:24:50;68.00;;;18.00;;
4468;SDS011;2247;42.666;23.292;2022-12-07T16:27:17;40.87;;;17.77;;
4468;SDS011;2247;42.666;23.292;2022-12-07T16:29:44;56.53;;;19.00;;
4468;SDS011;2247;42.666;23.292;2022-12-07T16:32:11;50.37;;;19.30;;
4468;SDS011;2247;42.666;23.292;2022-12-07T16:34:40;42.53;;;19.47;;
4468;SDS011;2247;42.666;23.292;2022-12-07T16:37:07;55.43;;;20.97;;
4468;SDS011;2247;42.666;23.292;2022-12-07T16:39:34;46.90;;;18.80;;
4468;SDS011;2247;42.666;23.292;2022-12-07T16:42:01;47.10;;;18.00;;
4468;SDS011;2247;42.666;23.292;2022-12-07T16:44:28;58.77;;;20.50;;
4468;SDS011;2247;42.666;23.292;2022-12-07T16:46:55;45.33;;;17.80;;
4468;SDS011;2247;42.666;23.292;2022-12-07T16:49:24;51.10;;;18.40;;
4468;SDS011;2247;42.666;23.292;2022-12-07T16:51:59;61.63;;;17.53;;
4468;SDS011;2247;42.666;23.292;2022-12-07T16:54:31;59.57;;;18.90;;